KJAX/JAX METAR and TAF weather

Enter ICAO airport designator
Station Type Date Time Source
KJAX METAR 2022/05/25 00:56 UTC NOAA

KJAX 250056Z 13008KT 10SM FEW040 FEW100 BKN250 26/21 A3005 RMK AO2 SLP176 T02560211


Station Type Date Time Source
KJAX Decoded METAR 2022/05/25 00:56 UTC NOAA

JACKSONVILLE INTERNATIONAL, FL, United States (KJAX) 30-30N 81-42W 7M
May 24, 2022 - 08:56 PM EDT / 2022.05.25 0056 UTC
Wind: from the SE (130 degrees) at 9 MPH (8 KT):0
Visibility: 10 mile(s):0
Sky conditions: mostly cloudy
Temperature: 78.1 F (25.6 C)
Dew Point: 70.0 F (21.1 C)
Relative Humidity: 76%
Pressure (altimeter): 30.05 in. Hg (1017 hPa)
ob: KJAX 250056Z 13008KT 10SM FEW040 FEW100 BKN250 26/21 A3005 RMK AO2 SLP176 T02560211
cycle: 1

Station Type Date Time Source
KJAX TAF 2022/05/24 18:40 UTC NOAA

TAF KJAX 241737Z 2418/2518 13011KT P6SM VCSH SCT040 BKN250
FM242300 12011KT P6SM SCT040 BKN250
FM250200 15003KT P6SM SCT250
FM251300 14008KT P6SM SCT020 BKN250

Example: see airport list